Time;durP1;ratioP1;P1;durP2;ratioP2;P2;SDS_P1;SDS_P2;PMS_P1;PMS_P2;Temp;Humidity;BMP_temperature;BMP_pressure;BME280_temperature;BME280_humidity;BME280_pressure;Samples;Min_cycle;Max_cycle;Signal;HPM_P1;HPM_P2
2022/06/08 00:01:10;;;;;;;13.45;6.40;;;;;;;11.22;100.00;100619.56;5016343;28;20071;-73
2022/06/08 00:03:45;;;;;;;15.82;6.80;;;;;;;11.12;100.00;100604.53;5037745;28;20025;-72
2022/06/08 00:06:12;;;;;;;15.70;6.72;;;;;;;11.09;100.00;100612.03;5035754;28;21118;-73
2022/06/08 00:08:37;;;;;;;;;;;;;;;11.12;100.00;100606.34;5033572;28;20554;-72
2022/06/08 00:11:02;;;;;;;;;;;;;;;11.03;100.00;100604.69;5033378;28;19916;-72
2022/06/08 00:13:28;;;;;;;14.80;7.00;;;;;;;10.97;100.00;100601.69;5037245;28;19915;-73
2022/06/08 00:15:54;;;;;;;15.57;6.50;;;;;;;10.98;100.00;100599.88;5036261;28;20037;-73
2022/06/08 00:18:20;;;;;;;13.75;7.63;;;;;;;11.04;100.00;100598.34;5035365;28;20516;-73
2022/06/08 00:20:46;;;;;;;15.93;6.63;;;;;;;10.97;100.00;100596.34;5032769;28;20052;-73
2022/06/08 00:23:11;;;;;;;14.18;6.95;;;;;;;10.94;100.00;100595.88;5042182;28;20028;-73
2022/06/08 00:25:37;;;;;;;19.63;7.97;;;;;;;10.91;100.00;100588.16;5034126;28;20476;-73
2022/06/08 00:28:03;;;;;;;17.23;8.40;;;;;;;10.92;100.00;100592.53;5032866;28;20407;-74
2022/06/08 00:30:31;;;;;;;18.02;8.07;;;;;;;10.74;100.00;100585.50;5035790;28;20116;-73
2022/06/08 00:32:58;;;;;;;14.98;7.00;;;;;;;10.76;100.00;100582.69;5037426;28;20634;-72
2022/06/08 00:35:24;;;;;;;17.37;9.33;;;;;;;10.71;100.00;100590.38;5034357;28;20045;-74
2022/06/08 00:37:51;;;;;;;25.70;7.85;;;;;;;10.76;100.00;100599.53;5033886;28;20084;-74
2022/06/08 00:40:18;;;;;;;;;;;;;;;10.77;100.00;100592.38;5034650;28;20068;-74
2022/06/08 00:42:44;;;;;;;13.68;8.45;;;;;;;10.73;100.00;100591.88;5038756;28;19948;-73
2022/06/08 00:45:14;;;;;;;15.05;7.65;;;;;;;10.70;100.00;100584.19;5034300;28;20076;-73
2022/06/08 00:47:47;;;;;;;19.48;8.32;;;;;;;10.72;100.00;100589.34;5036105;28;20037;-74
2022/06/08 00:50:18;;;;;;;22.85;8.90;;;;;;;10.77;100.00;100585.19;5034201;28;20095;-74
2022/06/08 00:52:44;;;;;;;24.35;9.95;;;;;;;10.69;100.00;100587.84;5032715;28;20037;-74
2022/06/08 00:55:12;;;;;;;24.17;8.70;;;;;;;10.74;100.00;100588.19;5033133;28;20029;-74
2022/06/08 00:57:45;;;;;;;15.30;8.40;;;;;;;10.72;100.00;100584.00;5035847;28;20091;-73
2022/06/08 01:00:16;;;;;;;17.23;7.82;;;;;;;10.72;100.00;100576.00;5034703;28;20411;-76
2022/06/08 01:02:41;;;;;;;16.55;8.52;;;;;;;10.66;100.00;100582.03;5032516;28;20048;-74
2022/06/08 01:05:31;;;;;;;17.85;8.45;;;;;;;10.69;100.00;100587.03;5032974;28;20056;-72
2022/06/08 01:08:23;;;;;;;22.85;9.88;;;;;;;10.58;100.00;100577.50;5035712;28;20095;-73
2022/06/08 01:10:54;;;;;;;20.55;8.50;;;;;;;10.53;100.00;100575.34;5014063;28;20577;-71
2022/06/08 01:13:21;;;;;;;20.17;9.77;;;;;;;10.59;100.00;100581.03;5019907;28;20032;-74
2022/06/08 01:15:47;;;;;;;19.58;8.55;;;;;;;10.51;100.00;100585.38;5048098;28;20549;-71
2022/06/08 01:18:16;;;;;;;20.15;9.35;;;;;;;10.43;100.00;100576.50;5045953;28;20037;-72
2022/06/08 01:20:51;;;;;;;19.90;8.80;;;;;;;10.47;100.00;100584.03;5036193;28;20098;-73
2022/06/08 01:23:20;;;;;;;19.10;8.93;;;;;;;10.51;100.00;100577.38;5044388;28;20037;-73
2022/06/08 01:26:12;;;;;;;;;;;;;;;10.43;100.00;100580.00;5016742;28;20836;-73
2022/06/08 01:28:47;;;;;;;21.52;8.43;;;;;;;10.39;100.00;100576.00;4983002;28;19913;-73
2022/06/08 01:31:32;;;;;;;22.70;9.95;;;;;;;10.34;100.00;100568.47;5038465;28;20088;-72
2022/06/08 01:34:10;;;;;;;26.63;12.03;;;;;;;10.24;100.00;100565.13;5040735;28;20032;-73
2022/06/08 01:37:02;;;;;;;16.15;9.20;;;;;;;10.28;100.00;100571.84;5020286;28;20291;-73
2022/06/08 01:39:37;;;;;;;16.85;8.95;;;;;;;10.29;100.00;100575.31;5021991;28;20033;-72
2022/06/08 01:42:16;;;;;;;20.60;8.93;;;;;;;10.22;100.00;100568.94;5046706;28;20041;-72
2022/06/08 01:48:22;;;;;;;18.55;10.75;;;;;;;10.15;100.00;100568.78;5048073;28;20594;-73
2022/06/08 01:50:58;;;;;;;20.58;10.10;;;;;;;10.12;100.00;100564.59;5047747;28;20036;-72
2022/06/08 01:53:42;;;;;;;22.58;11.52;;;;;;;10.07;100.00;100560.75;5046362;28;20438;-72
2022/06/08 01:56:20;;;;;;;25.48;11.32;;;;;;;10.11;100.00;100557.59;5029838;28;20037;-72
2022/06/08 01:58:58;;;;;;;22.48;11.57;;;;;;;10.09;100.00;100564.94;5046211;28;20039;-74
2022/06/08 02:01:45;;;;;;;19.67;12.07;;;;;;;10.09;100.00;100561.41;5046363;28;20029;-72
2022/06/08 02:04:29;;;;;;;20.02;11.13;;;;;;;10.14;100.00;100557.28;5045950;28;20491;-73
2022/06/08 02:07:27;;;;;;;21.38;12.38;;;;;;;10.24;100.00;100561.63;5046558;28;20029;-73
2022/06/08 02:09:56;;;;;;;26.77;12.93;;;;;;;10.30;100.00;100555.63;5029734;28;20029;-72
2022/06/08 02:12:22;;;;;;;28.08;12.35;;;;;;;10.29;100.00;100554.81;5046239;28;20033;-72
2022/06/08 02:15:10;;;;;;;22.48;12.25;;;;;;;10.29;100.00;100562.00;5046090;28;20021;-72
2022/06/08 02:17:51;;;;;;;24.67;12.77;;;;;;;10.33;100.00;100560.66;5046301;28;20037;-72
2022/06/08 02:20:44;;;;;;;21.58;11.13;;;;;;;10.30;100.00;100550.31;5029354;28;20040;-72
2022/06/08 02:23:22;;;;;;;20.40;12.93;;;;;;;10.30;100.00;100544.97;5029607;28;20036;-72
2022/06/08 02:26:01;;;;;;;21.27;12.60;;;;;;;10.39;100.00;100543.16;5044935;28;20086;-72
2022/06/08 02:28:34;;;;;;;22.40;13.15;;;;;;;10.42;100.00;100542.81;5045952;28;20369;-72
2022/06/08 02:31:09;;;;;;;22.25;13.65;;;;;;;10.43;100.00;100539.16;5045635;28;20037;-74
2022/06/08 02:36:32;;;;;;;23.10;14.68;;;;;;;10.40;100.00;100539.50;5045744;28;20407;-72
2022/06/08 02:39:16;;;;;;;27.27;14.82;;;;;;;10.35;100.00;100531.97;5045579;28;20065;-73
2022/06/08 02:41:46;;;;;;;25.85;14.95;;;;;;;10.38;100.00;100536.16;5045551;28;20086;-72
2022/06/08 02:44:23;;;;;;;30.35;16.20;;;;;;;10.38;100.00;100534.31;5045625;28;20491;-72
2022/06/08 02:47:08;;;;;;;29.95;16.55;;;;;;;10.38;100.00;100526.31;5021004;28;20098;-72
2022/06/08 02:49:36;;;;;;;32.53;15.13;;;;;;;10.36;100.00;100522.97;5029189;28;20488;-72
2022/06/08 02:52:16;;;;;;;33.67;17.33;;;;;;;10.39;100.00;100522.63;5029483;28;20037;-73
2022/06/08 02:54:43;;;;;;;24.42;15.10;;;;;;;10.43;100.00;100529.31;5045647;28;20033;-72
2022/06/08 02:57:34;;;;;;;35.22;17.20;;;;;;;10.47;100.00;100524.47;5028499;28;20021;-73
2022/06/08 03:00:14;;;;;;;24.73;15.30;;;;;;;10.48;100.00;100516.28;5050552;23;20053;-77
2022/06/08 03:02:46;;;;;;;34.40;16.88;;;;;;;10.48;100.00;100513.63;5024730;28;20576;-76
2022/06/08 03:05:19;;;;;;;29.38;17.00;;;;;;;10.52;100.00;100516.78;5044041;28;20044;-75
2022/06/08 03:07:54;;;;;;;26.27;15.13;;;;;;;10.55;100.00;100519.13;5062737;28;20083;-76
2022/06/08 03:10:21;;;;;;;33.50;16.67;;;;;;;10.59;100.00;100516.97;5036490;28;20060;-77
2022/06/08 03:13:12;;;;;;;27.48;15.80;;;;;;;10.64;100.00;100527.97;5026326;28;20650;-75
2022/06/08 03:15:40;;;;;;;27.35;16.05;;;;;;;10.68;100.00;100523.97;5045800;28;20041;-77
2022/06/08 03:18:06;;;;;;;22.58;15.57;;;;;;;10.68;100.00;100522.13;5045903;28;20038;-75
2022/06/08 03:20:31;;;;;;;29.75;14.55;;;;;;;10.74;100.00;100523.28;5046704;28;20505;-76
2022/06/08 03:22:57;;;;;;;25.05;13.80;;;;;;;10.77;100.00;100526.44;5045999;28;20483;-76
2022/06/08 03:25:28;;;;;;;27.75;14.70;;;;;;;10.86;100.00;100524.56;5046188;28;20033;-75
2022/06/08 03:27:54;;;;;;;29.43;15.00;;;;;;;10.90;100.00;100525.09;5045933;28;20488;-78
2022/06/08 03:30:22;;;;;;;21.17;12.65;;;;;;;10.87;100.00;100525.44;5045970;28;20479;-76
2022/06/08 03:32:47;;;;;;;;;;;;;;;10.90;100.00;100520.56;5046272;28;20036;-76
2022/06/08 03:35:13;;;;;;;;;;;;;;;10.93;100.00;100509.56;5047249;28;19909;-76
2022/06/08 03:37:41;;;;;;;17.42;12.45;;;;;;;10.97;100.00;100505.53;5045389;28;19964;-76
2022/06/08 03:40:08;;;;;;;22.55;11.50;;;;;;;11.04;100.00;100504.84;5045553;28;20024;-76
2022/06/08 03:42:34;;;;;;;19.10;11.48;;;;;;;11.04;100.00;100508.34;5045977;28;20044;-76
2022/06/08 03:45:01;;;;;;;26.17;12.02;;;;;;;11.05;100.00;100501.16;5025695;28;20033;-75
2022/06/08 03:47:29;;;;;;;24.97;11.10;;;;;;;11.10;100.00;100506.84;5046564;28;20025;-76
2022/06/08 03:49:59;;;;;;;22.30;12.05;;;;;;;11.04;100.00;100505.69;5025830;28;20325;-77
2022/06/08 03:52:29;;;;;;;21.58;10.93;;;;;;;11.05;100.00;100504.69;5046266;28;20033;-77
2022/06/08 03:55:00;;;;;;;24.63;12.35;;;;;;;11.05;100.00;100507.38;5045963;28;20035;-76
2022/06/08 03:57:29;;;;;;;23.98;13.02;;;;;;;11.03;100.00;100500.50;5045710;28;20037;-76
2022/06/08 03:59:57;;;;;;;20.95;13.00;;;;;;;11.07;100.00;100501.84;5045646;28;20036;-76
2022/06/08 04:02:24;;;;;;;29.90;12.82;;;;;;;11.03;100.00;100506.69;5045497;28;20390;-76
2022/06/08 04:04:50;;;;;;;20.17;12.50;;;;;;;11.06;100.00;100508.19;5025194;28;20039;-76
2022/06/08 04:07:16;;;;;;;;;;;;;;;11.11;100.00;100513.84;5046136;28;20427;-77
2022/06/08 04:09:45;;;;;;;25.73;12.02;;;;;;;11.13;100.00;100511.84;5045614;28;20496;-76
2022/06/08 04:12:12;;;;;;;27.35;13.35;;;;;;;11.09;100.00;100518.53;5044841;28;20123;-75
2022/06/08 04:14:39;;;;;;;23.30;13.00;;;;;;;11.11;100.00;100508.50;5045520;28;20396;-76
2022/06/08 04:17:08;;;;;;;24.50;12.65;;;;;;;11.10;100.00;100514.88;5045550;28;20407;-76
2022/06/08 04:19:34;;;;;;;21.67;12.63;;;;;;;11.02;100.00;100513.03;5025367;28;20037;-76
2022/06/08 04:22:00;;;;;;;20.90;12.95;;;;;;;11.14;100.00;100516.16;5025875;28;20052;-74
2022/06/08 04:24:26;;;;;;;26.77;14.20;;;;;;;11.23;100.00;100520.50;5045856;28;20376;-75
2022/06/08 04:26:56;;;;;;;24.38;13.13;;;;;;;11.39;100.00;100520.44;5045285;28;20052;-75
2022/06/08 04:29:30;;;;;;;26.48;13.25;;;;;;;11.34;100.00;100525.47;5045730;28;20524;-75
2022/06/08 04:31:56;;;;;;;24.85;13.07;;;;;;;11.44;100.00;100521.75;5045407;28;20029;-77
2022/06/08 04:34:26;;;;;;;27.40;12.73;;;;;;;11.43;100.00;100520.09;5029017;28;20032;-76
2022/06/08 04:36:52;;;;;;;18.65;11.25;;;;;;;11.39;100.00;100520.44;5028674;28;20036;-77
2022/06/08 04:39:21;;;;;;;20.20;12.00;;;;;;;11.38;100.00;100524.13;5029075;28;20037;-75
2022/06/08 04:41:53;;;;;;;22.98;12.55;;;;;;;11.33;100.00;100518.47;5045570;28;20115;-75
2022/06/08 04:44:21;;;;;;;18.77;11.05;;;;;;;11.30;100.00;100526.81;5044764;28;20233;-75
2022/06/08 04:46:46;;;;;;;20.98;11.82;;;;;;;11.44;100.00;100524.44;5045457;28;20456;-77
2022/06/08 04:49:17;;;;;;;19.52;10.95;;;;;;;11.68;100.00;100524.28;5044556;28;20041;-76
2022/06/08 04:51:44;;;;;;;23.45;12.85;;;;;;;11.76;100.00;100526.94;5043742;28;20025;-77
2022/06/08 04:54:10;;;;;;;20.92;10.32;;;;;;;11.84;100.00;100529.56;5027923;28;20551;-76
2022/06/08 04:56:39;;;;;;;23.35;11.48;;;;;;;11.95;100.00;100527.53;5043174;28;20120;-77
2022/06/08 04:59:04;;;;;;;18.40;10.50;;;;;;;11.88;100.00;100511.34;5044669;28;20045;-76
2022/06/08 05:01:34;;;;;;;15.10;9.80;;;;;;;11.96;100.00;100516.69;5044637;28;20541;-76
2022/06/08 05:04:00;;;;;;;16.08;8.95;;;;;;;12.01;100.00;100514.28;5061189;28;20033;-76
2022/06/08 05:06:26;;;;;;;17.80;9.13;;;;;;;12.22;100.00;100507.44;5044857;28;20039;-76
2022/06/08 05:08:52;;;;;;;14.02;8.88;;;;;;;12.48;100.00;100515.13;5045060;28;20036;-77
2022/06/08 05:11:17;;;;;;;14.43;8.53;;;;;;;12.87;100.00;100509.53;5027937;28;20025;-76
2022/06/08 05:13:45;;;;;;;14.15;8.02;;;;;;;13.00;100.00;100497.38;5028606;28;20032;-76
2022/06/08 05:16:11;;;;;;;15.50;7.78;;;;;;;13.03;100.00;100487.09;5028597;28;20029;-75
2022/06/08 05:18:42;;;;;;;12.15;7.90;;;;;;;13.27;100.00;100488.72;5045161;28;20037;-77
2022/06/08 05:21:14;;;;;;;16.52;9.50;;;;;;;13.42;100.00;100463.72;5029958;28;20437;-77
2022/06/08 05:23:42;;;;;;;16.45;8.65;;;;;;;13.24;100.00;100466.75;5045091;28;20499;-76
2022/06/08 05:26:13;;;;;;;22.52;9.40;;;;;;;13.06;100.00;100457.25;5045349;28;20031;-77
2022/06/08 05:28:41;;;;;;;13.38;8.68;;;;;;;13.18;100.00;100457.63;5028657;28;20029;-76
2022/06/08 05:31:07;;;;;;;14.95;8.80;;;;;;;12.93;100.00;100469.66;5037280;28;20040;-76
2022/06/08 05:33:35;;;;;;;13.50;8.43;;;;;;;13.23;100.00;100486.56;5030261;28;20139;-75
2022/06/08 05:36:09;;;;;;;15.07;7.38;;;;;;;14.01;100.00;100494.91;5049124;28;20025;-77
2022/06/08 05:38:36;;;;;;;13.85;8.23;;;;;;;13.96;100.00;100425.69;5046209;28;20032;-77
2022/06/08 05:41:03;;;;;;;17.13;8.27;;;;;;;13.94;100.00;100411.63;5029467;28;20029;-76
2022/06/08 05:43:30;;;;;;;14.77;7.65;;;;;;;14.89;100.00;100425.56;5046242;28;20040;-77
2022/06/08 05:45:55;;;;;;;13.85;7.88;;;;;;;16.16;100.00;100363.00;5029217;28;20033;-75
2022/06/08 05:48:23;;;;;;;14.88;7.97;;;;;;;16.38;100.00;100242.34;5036830;28;20033;-76
2022/06/08 05:50:49;;;;;;;;;;;;;;;17.56;100.00;100215.91;5038391;28;20112;-78
2022/06/08 05:53:18;;;;;;;11.05;6.45;;;;;;;18.00;100.00;100177.06;5045632;28;19920;-78
2022/06/08 05:55:44;;;;;;;15.23;7.03;;;;;;;16.76;100.00;100069.03;5046259;28;20029;-77
2022/06/08 05:58:12;;;;;;;9.75;6.38;;;;;;;16.68;100.00;100204.06;5029611;28;20044;-77
2022/06/08 06:00:42;;;;;;;14.70;6.47;;;;;;;17.01;100.00;100179.63;5032593;28;20025;-76
2022/06/08 06:03:08;;;;;;;12.40;7.20;;;;;;;17.32;100.00;100196.81;5030877;28;20488;-77
2022/06/08 06:05:34;;;;;;;13.82;7.47;;;;;;;14.95;100.00;100115.66;5044818;28;20060;-77
2022/06/08 06:08:05;;;;;;;11.10;7.55;;;;;;;14.41;100.00;100342.19;5039296;28;20033;-76
2022/06/08 06:10:35;;;;;;;16.98;7.38;;;;;;;14.08;100.00;100426.84;5047150;28;20055;-77
2022/06/08 06:13:03;;;;;;;12.63;7.85;;;;;;;13.97;100.00;100435.41;5052186;28;20219;-77
2022/06/08 06:15:40;;;;;;;14.45;8.05;;;;;;;13.99;100.00;100486.22;5032886;28;20040;-75
2022/06/08 06:18:06;;;;;;;14.23;7.80;;;;;;;14.34;100.00;100493.34;5048063;28;20041;-76
2022/06/08 06:20:33;;;;;;;16.80;8.70;;;;;;;14.02;100.00;100470.53;5047168;28;20549;-77
2022/06/08 06:23:22;;;;;;;14.30;8.32;;;;;;;13.61;100.00;100502.53;5036418;28;20144;-77
2022/06/08 06:25:51;;;;;;;11.70;6.85;;;;;;;13.41;100.00;100511.13;5046357;28;20033;-76
2022/06/08 06:28:35;;;;;;;12.02;7.10;;;;;;;13.21;100.00;100526.94;5050186;28;20071;-77
2022/06/08 06:31:18;;;;;;;10.40;7.28;;;;;;;13.16;100.00;100540.06;5031988;28;20032;-76
2022/06/08 06:33:58;;;;;;;14.35;7.05;;;;;;;13.27;100.00;100533.41;5053726;28;20104;-76
2022/06/08 06:36:24;;;;;;;15.65;8.50;;;;;;;13.49;100.00;100563.84;5049210;28;20444;-75
2022/06/08 06:38:50;;;;;;;13.55;7.82;;;;;;;13.49;100.00;100539.72;5032028;28;20029;-77
2022/06/08 06:41:17;;;;;;;18.38;6.90;;;;;;;13.47;100.00;100531.84;5047425;28;20048;-77
2022/06/08 06:43:44;;;;;;;14.57;6.45;;;;;;;13.98;100.00;100522.97;5031708;28;20144;-75
2022/06/08 06:46:16;;;;;;;13.50;7.60;;;;;;;14.21;100.00;100495.94;5048097;28;20376;-77
2022/06/08 06:49:02;;;;;;;11.40;5.93;;;;;;;15.41;100.00;100481.47;5041951;28;20060;-77
2022/06/08 06:51:29;;;;;;;14.88;6.32;;;;;;;15.77;100.00;100380.78;5030982;28;20438;-76
2022/06/08 06:53:55;;;;;;;9.33;5.00;;;;;;;16.67;100.00;100393.78;5032053;28;20028;-76
2022/06/08 06:56:20;;;;;;;9.93;5.03;;;;;;;17.12;100.00;100229.34;5047590;28;20398;-76
2022/06/08 06:59:02;;;;;;;10.02;4.32;;;;;;;17.55;100.00;100188.09;5047088;28;20560;-77
2022/06/08 07:01:29;;;;;;;7.50;4.15;;;;;;;18.03;100.00;100108.31;5047967;28;20039;-76
2022/06/08 07:03:57;;;;;;;12.63;5.40;;;;;;;17.38;100.00;99998.97;5031231;28;20048;-77
2022/06/08 07:06:23;;;;;;;12.40;5.45;;;;;;;17.72;100.00;100069.56;5047788;28;20028;-77
2022/06/08 07:08:48;;;;;;;7.47;4.23;;;;;;;17.57;100.00;100069.16;5031279;28;20476;-77
2022/06/08 07:11:32;;;;;;;6.90;4.03;;;;;;;18.57;100.00;100095.72;5046910;28;20041;-76
2022/06/08 07:14:05;;;;;;;12.35;6.00;;;;;;;17.84;100.00;100010.28;5047855;28;20059;-76
2022/06/08 07:16:32;;;;;;;8.32;4.88;;;;;;;17.49;100.00;100081.88;5031156;28;20487;-77
2022/06/08 07:18:58;;;;;;;7.50;4.97;;;;;;;17.11;100.00;100082.03;5047755;28;20028;-77
2022/06/08 07:21:24;;;;;;;;;;;;;;;17.36;100.00;100127.88;5031841;28;20033;-76
2022/06/08 07:23:49;;;;;;;;;;;;;;;16.55;100.00;100139.47;5031109;28;20334;-76
2022/06/08 07:26:17;;;;;;;14.67;6.03;;;;;;;16.77;100.00;100248.59;5048893;28;19959;-76
2022/06/08 07:28:43;;;;;;;11.63;6.93;;;;;;;16.76;100.00;100157.97;5030835;28;20032;-77
2022/06/08 07:31:12;;;;;;;11.70;5.97;;;;;;;16.92;100.00;100212.47;5030627;28;20030;-76
2022/06/08 07:33:38;;;;;;;10.95;5.60;;;;;;;17.46;100.00;100208.31;5047719;28;20056;-77
2022/06/08 07:36:04;;;;;;;11.75;5.45;;;;;;;17.56;100.00;100133.09;5047344;28;20563;-76
2022/06/08 07:38:29;;;;;;;6.60;4.93;;;;;;;17.65;100.00;100319.88;5039208;28;20025;-76
2022/06/08 07:40:55;;;;;;;8.85;5.30;;;;;;;17.70;100.00;100203.97;5047160;28;20338;-78
2022/06/08 07:43:21;;;;;;;8.07;4.63;;;;;;;17.84;100.00;100129.91;5047252;28;20056;-77
2022/06/08 07:45:46;;;;;;;12.20;5.70;;;;;;;17.19;100.00;100076.38;5048574;28;20090;-77
2022/06/08 07:50:56;;;;;;;8.98;5.05;;;;;;;15.55;100.00;100240.19;5047941;28;20295;-76
2022/06/08 07:53:21;;;;;;;8.93;5.50;;;;;;;15.25;100.00;100319.63;5030540;28;20023;-77
2022/06/08 07:55:47;;;;;;;10.73;5.40;;;;;;;15.41;100.00;100390.00;5046563;28;20131;-77
2022/06/08 07:58:12;;;;;;;11.55;6.57;;;;;;;15.55;100.00;100407.00;5048446;28;20421;-77
2022/06/08 08:00:38;;;;;;;6.63;5.37;;;;;;;15.75;100.00;100390.91;5046728;28;20041;-76
2022/06/08 08:03:04;;;;;;;10.50;5.57;;;;;;;15.49;100.00;100364.78;5046885;28;20029;-77
2022/06/08 08:05:30;;;;;;;;;;;;;;;15.19;100.00;100369.66;5021641;28;20278;-76
2022/06/08 08:07:55;;;;;;;;;;;;;;;15.52;100.00;100395.81;5030225;28;19909;-77
2022/06/08 08:10:24;;;;;;;13.52;5.50;;;;;;;15.54;100.00;100388.38;5045812;28;19916;-77
2022/06/08 08:12:51;;;;;;;11.30;4.78;;;;;;;15.55;100.00;100357.75;5047987;28;20075;-77
2022/06/08 08:15:17;;;;;;;7.15;4.65;;;;;;;15.69;100.00;100366.69;5046380;28;20032;-77
2022/06/08 08:17:43;;;;;;;9.05;4.35;;;;;;;15.88;100.00;100325.50;5048217;28;20075;-77
2022/06/08 08:20:11;;;;;;;12.40;4.60;;;;;;;16.09;100.00;100312.88;5046791;28;20444;-77
2022/06/08 08:22:37;;;;;;;8.77;4.72;;;;;;;16.74;100.00;100313.75;5046159;28;20392;-76
2022/06/08 08:25:02;;;;;;;9.30;4.00;;;;;;;16.96;100.00;100259.53;5046607;28;20032;-77
2022/06/08 08:27:28;;;;;;;8.88;4.03;;;;;;;17.64;100.00;100292.06;5029976;28;20025;-77
2022/06/08 08:29:53;;;;;;;13.05;4.60;;;;;;;17.56;100.00;100219.47;5046938;28;20380;-77
2022/06/08 08:32:19;;;;;;;9.97;4.33;;;;;;;17.77;100.00;100171.50;5046734;28;20067;-76
2022/06/08 08:34:44;;;;;;;6.60;3.27;;;;;;;17.74;100.00;100210.56;5045893;28;20356;-76
2022/06/08 08:37:09;;;;;;;4.40;3.20;;;;;;;17.97;100.00;100203.72;5048010;28;20033;-76
2022/06/08 08:39:35;;;;;;;10.63;3.70;;;;;;;17.40;100.00;100082.41;5047704;28;20142;-76
2022/06/08 08:42:21;;;;;;;3.85;2.67;;;;;;;18.35;100.00;100235.91;5046409;28;20055;-77
2022/06/08 08:44:53;;;;;;;4.32;3.28;;;;;;;18.32;100.00;100174.22;5045891;28;20123;-77
2022/06/08 08:47:35;;;;;;;4.32;3.50;;;;;;;17.31;100.00;100106.16;5047530;28;20032;-77
2022/06/08 08:50:16;;;;;;;8.32;3.47;;;;;;;17.99;100.00;100215.13;5029864;28;20067;-78
2022/06/08 08:53:05;;;;;;;8.68;4.03;;;;;;;17.28;100.00;100145.19;5030327;28;20048;-78
2022/06/08 08:55:39;;;;;;;6.75;3.90;;;;;;;17.20;100.00;100164.34;5038935;28;20276;-78
2022/06/08 08:58:07;;;;;;;5.00;3.97;;;;;;;17.41;100.00;100197.38;5047096;28;20523;-77
2022/06/08 09:00:38;;;;;;;6.13;3.50;;;;;;;18.84;100.00;100322.50;5041544;23;20045;-74
2022/06/08 09:03:24;;;;;;;5.30;3.53;;;;;;;18.42;100.00;100079.91;5008245;28;20720;-74
2022/06/08 09:05:54;;;;;;;4.00;3.00;;;;;;;18.76;100.00;100032.41;5006284;28;20045;-74
2022/06/08 09:08:22;;;;;;;9.82;3.70;;;;;;;18.90;100.00;99997.03;5005801;28;20046;-74
2022/06/08 09:10:48;;;;;;;7.88;3.50;;;;;;;18.84;100.00;100008.78;5010759;28;20647;-74
2022/06/08 09:13:25;;;;;;;;;;;;;;;19.03;95.16;99902.09;5006126;28;20030;-74
2022/06/08 09:15:56;;;;;;;6.07;4.13;;;;;;;19.29;93.10;99906.16;5012850;28;19986;-74
2022/06/08 09:18:41;;;;;;;6.50;3.90;;;;;;;20.49;88.75;99992.06;5010956;28;20291;-74
2022/06/08 09:21:37;;;;;;;9.98;4.65;;;;;;;20.86;82.94;99932.69;5004856;28;20066;-74
2022/06/08 09:24:23;;;;;;;9.55;4.10;;;;;;;21.55;79.29;99928.69;4995347;28;20069;-75
2022/06/08 09:27:10;;;;;;;6.78;4.32;;;;;;;21.83;79.92;99969.19;5005199;28;20616;-75
2022/06/08 09:29:48;;;;;;;6.80;4.22;;;;;;;22.05;70.55;99813.41;5003466;28;20484;-75
2022/06/08 09:32:45;;;;;;;8.75;4.32;;;;;;;21.63;75.60;99860.31;5003135;28;20219;-74
2022/06/08 09:35:17;;;;;;;4.10;3.53;;;;;;;22.63;71.30;99938.66;5001075;28;20106;-72
2022/06/08 09:37:44;;;;;;;5.38;3.50;;;;;;;23.00;69.67;99919.56;5009894;28;20073;-73
2022/06/08 09:40:36;;;;;;;8.15;4.38;;;;;;;22.99;66.68;99806.31;5010947;28;20095;-73
2022/06/08 09:43:34;;;;;;;7.75;4.53;;;;;;;22.94;61.16;99629.38;5014153;28;20041;-74
2022/06/08 09:46:24;;;;;;;9.32;4.80;;;;;;;23.24;65.58;99832.00;5014582;28;20512;-73
2022/06/08 09:52:13;;;;;;;7.88;4.47;;;;;;;24.40;57.70;99751.28;5006954;28;20473;-73
2022/06/08 09:55:08;;;;;;;9.88;5.22;;;;;;;23.86;55.66;99552.19;5008095;28;20065;-73
2022/06/08 09:57:46;;;;;;;6.85;5.20;;;;;;;22.90;58.72;99554.84;5007166;28;20389;-73
2022/06/08 10:00:20;;;;;;;10.70;5.40;;;;;;;22.58;60.02;99579.56;5023147;28;20516;-73
2022/06/08 10:02:56;;;;;;;7.80;4.32;;;;;;;22.60;61.14;99667.97;5007121;28;20049;-73
2022/06/08 10:05:39;;;;;;;8.10;4.72;;;;;;;23.51;60.12;99763.69;5023368;28;20033;-75
2022/06/08 10:08:27;;;;;;;4.85;3.85;;;;;;;23.60;58.73;99734.81;5008635;28;20037;-76
2022/06/08 10:11:37;;;;;;;9.27;4.35;;;;;;;23.55;55.96;99607.59;5008521;28;20113;-75
2022/06/08 10:14:14;;;;;;;5.28;4.40;;;;;;;23.71;59.41;99776.47;5007561;28;20463;-75
2022/06/08 10:16:48;;;;;;;6.82;4.10;;;;;;;24.46;57.16;99824.94;5002310;28;20121;-75
2022/06/08 10:19:27;;;;;;;5.88;4.03;;;;;;;24.89;55.53;99798.03;5007457;28;20626;-75
2022/06/08 10:21:52;;;;;;;5.22;4.43;;;;;;;23.12;57.42;99544.47;5008361;28;20061;-75
2022/06/08 10:24:31;;;;;;;5.90;4.50;;;;;;;22.29;60.74;99553.69;5006735;28;20468;-75
2022/06/08 10:27:08;;;;;;;6.88;3.80;;;;;;;22.80;62.04;99746.09;5008210;28;20044;-75
2022/06/08 10:29:42;;;;;;;6.80;4.25;;;;;;;23.52;55.79;99619.03;5006718;28;20053;-73
2022/06/08 10:32:24;;;;;;;8.23;4.47;;;;;;;23.76;53.23;99564.78;4990481;28;20025;-75
2022/06/08 10:34:54;;;;;;;15.68;3.78;;;;;;;24.02;56.03;99736.38;5023697;28;20404;-75
2022/06/08 10:37:47;;;;;;;11.38;4.97;;;;;;;23.86;56.76;99704.81;5008577;28;20038;-74
2022/06/08 10:40:20;;;;;;;8.48;4.65;;;;;;;22.82;59.19;99593.47;5005376;28;20404;-75
2022/06/08 10:42:48;;;;;;;11.55;5.20;;;;;;;23.96;54.76;99653.00;5008430;28;20037;-75
2022/06/08 10:45:23;;;;;;;5.95;4.40;;;;;;;22.45;59.35;99540.09;5022757;28;20116;-75
2022/06/08 10:47:57;;;;;;;7.15;4.68;;;;;;;21.42;66.91;99596.78;5006999;28;20092;-76
2022/06/08 10:50:38;;;;;;;10.15;4.70;;;;;;;22.32;63.17;99691.81;5008120;28;20038;-74
2022/06/08 10:56:34;;;;;;;8.10;4.60;;;;;;;23.27;58.79;99681.69;5005073;28;20420;-75
2022/06/08 10:59:06;;;;;;;4.97;3.72;;;;;;;22.93;60.14;99684.91;5006792;28;20060;-75
2022/06/08 11:01:37;;;;;;;8.68;4.85;;;;;;;22.21;62.71;99611.28;5007127;28;20100;-75
2022/06/08 11:04:07;;;;;;;10.20;5.25;;;;;;;22.72;59.93;99611.41;5006854;28;20042;-76
2022/06/08 11:06:51;;;;;;;7.35;5.35;;;;;;;21.15;71.54;99653.00;5000402;28;20566;-75
2022/06/08 11:09:33;;;;;;;7.75;5.40;;;;;;;21.86;75.24;99930.63;5007781;28;20378;-75
2022/06/08 11:12:10;;;;;;;8.35;4.55;;;;;;;23.79;59.58;99792.31;5008051;28;20040;-75
2022/06/08 11:14:48;;;;;;;7.45;5.43;;;;;;;22.36;61.38;99568.91;5006718;28;20096;-75
2022/06/08 11:17:35;;;;;;;11.05;6.20;;;;;;;21.55;68.38;99673.44;5006402;28;20033;-75
2022/06/08 11:20:19;;;;;;;7.93;5.68;;;;;;;21.95;67.98;99745.41;5006624;28;20034;-74
2022/06/08 11:22:57;;;;;;;9.40;5.30;;;;;;;22.10;65.37;99685.69;5000729;28;20041;-74
2022/06/08 11:25:52;;;;;;;9.50;5.85;;;;;;;21.34;65.98;99548.38;5022652;28;20038;-74
2022/06/08 11:28:43;;;;;;;9.00;5.17;;;;;;;20.85;74.15;99703.19;4998199;28;20054;-74
2022/06/08 11:31:27;;;;;;;9.30;5.88;;;;;;;20.52;72.79;99606.56;5007399;28;20319;-73
2022/06/08 11:34:23;;;;;;;7.20;4.72;;;;;;;21.39;76.82;99885.03;5007441;28;20038;-73
2022/06/08 11:37:06;;;;;;;10.63;5.22;;;;;;;21.40;69.96;99718.41;5007771;28;20043;-74
2022/06/08 11:39:55;;;;;;;8.02;5.47;;;;;;;21.68;65.85;99653.94;4999464;28;20045;-73
2022/06/08 11:42:28;;;;;;;7.80;5.60;;;;;;;20.47;71.57;99571.25;5006028;28;20045;-73
2022/06/08 11:45:14;;;;;;;6.93;5.88;;;;;;;20.93;77.46;99841.09;5006954;28;20040;-74
2022/06/08 11:47:48;;;;;;;;;;;;;;;21.47;74.40;99848.50;5000079;28;20041;-73
2022/06/08 11:50:18;;;;;;;6.97;4.60;;;;;;;21.93;76.40;99977.44;5005336;28;19913;-73
2022/06/08 11:52:55;;;;;;;7.63;5.15;;;;;;;21.68;74.47;99849.50;5005890;28;20042;-73
2022/06/08 11:55:23;;;;;;;7.57;4.63;;;;;;;22.46;71.93;99944.25;5005049;28;20042;-73
2022/06/08 11:57:54;;;;;;;5.38;4.40;;;;;;;23.38;67.98;99969.28;5005172;28;20057;-74